createdAt,value
2023-04-04T00:01:56.192Z,8.36
2023-04-04T00:04:28.123Z,8.35
2023-04-04T00:06:58.662Z,8.28
2023-04-04T00:09:27.179Z,8.29
2023-04-04T00:11:59.199Z,8.30
2023-04-04T00:14:30.818Z,8.14
2023-04-04T00:17:00.770Z,8.07
2023-04-04T00:19:36.238Z,8.23
2023-04-04T00:22:24.482Z,8.13
2023-04-04T00:24:57.425Z,8.16
2023-04-04T00:27:27.967Z,8.17
2023-04-04T00:29:55.984Z,8.13
2023-04-04T00:32:33.684Z,8.11
2023-04-04T00:35:03.527Z,8.08
2023-04-04T00:37:38.210Z,8.10
2023-04-04T00:40:10.286Z,8.11
2023-04-04T00:42:39.668Z,8.08
2023-04-04T00:45:26.652Z,7.97
2023-04-04T00:47:56.688Z,8.02
2023-04-04T00:50:39.865Z,7.92
2023-04-04T00:53:21.810Z,7.88
2023-04-04T00:56:00.136Z,7.98
2023-04-04T00:58:44.659Z,7.79
2023-04-04T01:01:18.469Z,7.94
2023-04-04T01:03:52.797Z,7.95
2023-04-04T01:06:21.204Z,7.93
2023-04-04T01:08:51.139Z,7.93
2023-04-04T01:11:19.072Z,7.92
2023-04-04T01:13:48.393Z,7.93
2023-04-04T01:16:18.098Z,7.89
2023-04-04T01:18:47.046Z,7.87
2023-04-04T01:21:21.746Z,7.87
2023-04-04T01:24:01.279Z,7.83
2023-04-04T01:26:37.993Z,7.79
2023-04-04T01:29:06.173Z,7.79
2023-04-04T01:31:46.489Z,7.81
2023-04-04T01:34:47.063Z,7.77
2023-04-04T01:37:43.012Z,7.73
2023-04-04T01:40:24.953Z,7.69
2023-04-04T01:42:55.691Z,7.60
2023-04-04T01:45:24.304Z,7.63
2023-04-04T01:47:53.216Z,7.62
2023-04-04T01:50:24.144Z,7.62
2023-04-04T01:52:52.464Z,7.62
2023-04-04T01:55:21.764Z,7.61
2023-04-04T01:57:49.585Z,7.60
2023-04-04T02:00:17.678Z,7.62
2023-04-04T02:02:45.592Z,7.60
2023-04-04T02:05:13.504Z,7.59
2023-04-04T02:07:41.837Z,7.57
2023-04-04T02:10:21.537Z,7.49
2023-04-04T02:12:52.477Z,7.54
2023-04-04T02:15:21.280Z,7.49
2023-04-04T02:17:49.712Z,7.49
2023-04-04T02:20:19.421Z,7.45
2023-04-04T02:22:55.195Z,7.48
2023-04-04T02:25:24.584Z,7.38
2023-04-04T02:27:52.923Z,7.38
2023-04-04T02:30:21.750Z,7.39
2023-04-04T02:32:51.652Z,7.37
2023-04-04T02:35:21.486Z,7.38
2023-04-04T02:37:49.254Z,7.33
2023-04-04T02:40:42.158Z,7.29
2023-04-04T02:43:10.818Z,7.28
2023-04-04T02:45:39.364Z,7.31
2023-04-04T02:48:15.798Z,7.30
2023-04-04T02:50:47.986Z,7.30
2023-04-04T02:53:16.773Z,7.28
2023-04-04T02:55:46.232Z,7.27
2023-04-04T02:58:14.895Z,7.26
2023-04-04T03:00:43.092Z,7.20
2023-04-04T03:03:11.460Z,7.20
2023-04-04T03:05:44.520Z,7.18
2023-04-04T03:08:12.286Z,7.18
2023-04-04T03:10:40.955Z,7.20
2023-04-04T03:13:08.841Z,7.18
2023-04-04T03:15:36.818Z,7.13
2023-04-04T03:18:05.005Z,7.13
2023-04-04T03:20:34.265Z,7.14
2023-04-04T03:23:02.145Z,7.14
2023-04-04T03:25:30.506Z,7.05
2023-04-04T03:27:58.430Z,7.09
2023-04-04T03:30:27.805Z,7.07
2023-04-04T03:32:56.968Z,7.04
2023-04-04T03:35:24.792Z,7.02
2023-04-04T03:37:52.674Z,7.01
2023-04-04T03:40:20.451Z,7.00
2023-04-04T03:42:48.120Z,6.98
2023-04-04T03:45:20.413Z,6.96
2023-04-04T03:47:48.352Z,6.95
2023-04-04T03:50:16.881Z,6.93
2023-04-04T03:52:51.652Z,6.90
2023-04-04T03:55:19.887Z,6.79
2023-04-04T03:57:47.905Z,6.81
2023-04-04T04:00:17.019Z,6.77
2023-04-04T04:02:46.008Z,6.69
2023-04-04T04:05:13.908Z,6.67
2023-04-04T04:07:44.841Z,6.68
2023-04-04T04:10:14.236Z,6.58
2023-04-04T04:12:42.157Z,6.59
2023-04-04T04:15:11.371Z,6.59
2023-04-04T04:17:42.313Z,6.57
2023-04-04T04:20:12.636Z,6.56
2023-04-04T04:22:50.193Z,6.54
2023-04-04T04:25:19.585Z,6.56
2023-04-04T04:27:58.128Z,6.55
2023-04-04T04:30:27.566Z,6.59
2023-04-04T04:33:15.517Z,6.52
2023-04-04T04:36:04.969Z,6.57
2023-04-04T04:38:43.049Z,6.53
2023-04-04T04:41:11.503Z,6.50
2023-04-04T04:43:44.717Z,6.52
2023-04-04T04:46:12.513Z,6.49
2023-04-04T04:48:40.818Z,6.46
2023-04-04T04:51:10.697Z,6.42
2023-04-04T04:53:50.448Z,6.41
2023-04-04T04:56:19.386Z,6.44
2023-04-04T04:58:51.173Z,6.44
2023-04-04T05:01:28.122Z,6.44
2023-04-04T05:03:59.191Z,6.49
2023-04-04T05:06:38.183Z,6.45
2023-04-04T05:09:08.896Z,6.31
2023-04-04T05:11:39.301Z,6.32
2023-04-04T05:14:10.224Z,6.36
2023-04-04T05:16:47.673Z,6.35
2023-04-04T05:19:19.797Z,6.33
2023-04-04T05:21:54.034Z,6.30
2023-04-04T05:24:32.801Z,6.33
2023-04-04T05:27:02.048Z,6.30
2023-04-04T05:29:35.294Z,6.36
2023-04-04T05:32:04.754Z,6.35
2023-04-04T05:34:34.005Z,6.36
2023-04-04T05:37:06.393Z,6.41
2023-04-04T05:39:35.192Z,6.41
2023-04-04T05:42:09.163Z,6.38
2023-04-04T05:44:41.677Z,6.37
2023-04-04T05:47:10.835Z,6.36
2023-04-04T05:49:44.008Z,6.33
2023-04-04T05:52:12.331Z,6.32
2023-04-04T05:54:40.158Z,6.36
2023-04-04T05:57:13.867Z,6.37
2023-04-04T05:59:45.905Z,6.37
2023-04-04T06:02:16.186Z,6.43
2023-04-04T06:04:49.453Z,6.46
2023-04-04T06:07:28.404Z,6.46
2023-04-04T06:09:56.547Z,6.52
2023-04-04T06:12:29.041Z,6.55
2023-04-04T06:14:59.088Z,6.58
2023-04-04T06:17:27.150Z,6.56
2023-04-04T06:19:57.591Z,6.64
2023-04-04T06:22:27.024Z,6.69
2023-04-04T06:24:58.746Z,6.63
2023-04-04T06:27:28.205Z,6.68
2023-04-04T06:30:01.744Z,6.74
2023-04-04T06:32:32.329Z,6.80
2023-04-04T06:35:01.416Z,6.85
2023-04-04T06:37:39.981Z,6.92
2023-04-04T06:40:20.176Z,7.04
2023-04-04T06:42:55.037Z,7.17
2023-04-04T06:45:27.095Z,7.27
2023-04-04T06:47:55.640Z,7.40
2023-04-04T06:50:23.397Z,7.48
2023-04-04T06:52:51.565Z,7.54
2023-04-04T06:55:19.387Z,7.65
2023-04-04T06:57:47.332Z,7.71
2023-04-04T07:00:22.187Z,7.73
2023-04-04T07:02:50.645Z,7.84
2023-04-04T07:05:18.428Z,7.92
2023-04-04T07:07:47.773Z,7.98
2023-04-04T07:10:15.519Z,8.02
2023-04-04T07:12:43.227Z,8.01
2023-04-04T07:15:11.633Z,8.11
2023-04-04T07:17:41.029Z,8.13
2023-04-04T07:20:09.393Z,8.20
2023-04-04T07:22:40.957Z,8.20
2023-04-04T07:25:09.871Z,8.20
2023-04-04T07:27:37.563Z,8.25
2023-04-04T07:30:06.012Z,8.27
2023-04-04T07:32:34.108Z,8.40
2023-04-04T07:35:04.230Z,8.45
2023-04-04T07:37:37.812Z,8.45
2023-04-04T07:40:09.706Z,8.55
2023-04-04T07:42:47.860Z,8.61
2023-04-04T07:45:18.544Z,8.65
2023-04-04T07:47:47.777Z,8.75
2023-04-04T07:50:16.633Z,8.76
2023-04-04T07:52:52.296Z,8.86
2023-04-04T07:55:22.957Z,8.86
2023-04-04T07:57:58.466Z,8.92
2023-04-04T08:00:26.610Z,8.96
2023-04-04T08:03:01.584Z,9.04
2023-04-04T08:05:35.986Z,9.07
2023-04-04T08:08:03.674Z,9.11
2023-04-04T08:10:31.489Z,9.15
2023-04-04T08:12:59.428Z,9.22
2023-04-04T08:15:27.634Z,9.31
2023-04-04T08:17:56.599Z,9.38
2023-04-04T08:20:24.562Z,9.44
2023-04-04T08:22:52.537Z,9.50
2023-04-04T08:25:22.941Z,9.54
2023-04-04T08:27:50.827Z,9.63
2023-04-04T08:30:18.778Z,9.66
2023-04-04T08:32:47.114Z,9.67
2023-04-04T08:35:15.417Z,9.63
2023-04-04T08:37:46.530Z,9.70
2023-04-04T08:40:17.169Z,9.72
2023-04-04T08:42:46.133Z,9.76
2023-04-04T08:45:19.667Z,9.87
2023-04-04T08:47:50.574Z,9.83
2023-04-04T08:50:19.743Z,9.86
2023-04-04T08:52:48.001Z,9.96
2023-04-04T08:55:15.998Z,9.95
2023-04-04T08:57:46.917Z,10.01
2023-04-04T09:00:16.869Z,10.00
2023-04-04T09:03:05.277Z,10.14
2023-04-04T09:05:35.445Z,10.15
2023-04-04T09:08:07.364Z,10.20
2023-04-04T09:10:38.615Z,10.12
2023-04-04T09:13:15.476Z,10.23
2023-04-04T09:15:50.209Z,10.32
2023-04-04T09:18:18.891Z,10.31
2023-04-04T09:20:48.090Z,10.33
2023-04-04T09:23:20.208Z,10.40
2023-04-04T09:28:26.058Z,10.47
2023-04-04T09:30:53.960Z,10.51
2023-04-04T09:33:24.548Z,10.55
2023-04-04T09:35:58.595Z,10.65
2023-04-04T09:38:29.402Z,10.72
2023-04-04T09:40:59.370Z,10.78
2023-04-04T09:43:34.391Z,10.83
2023-04-04T09:46:06.814Z,10.84
2023-04-04T09:48:37.660Z,10.88
2023-04-04T09:51:12.291Z,10.89
2023-04-04T09:53:42.412Z,10.98
2023-04-04T09:56:11.632Z,11.03
2023-04-04T09:58:46.340Z,11.04
2023-04-04T10:01:21.891Z,11.04
2023-04-04T10:03:54.550Z,11.13
2023-04-04T10:06:25.567Z,11.12
2023-04-04T10:08:53.522Z,11.04
2023-04-04T10:11:34.667Z,11.14
2023-04-04T10:14:06.762Z,11.15
2023-04-04T10:16:38.590Z,11.18
2023-04-04T10:19:08.059Z,11.18
2023-04-04T10:21:36.595Z,11.20
2023-04-04T10:24:10.678Z,11.16
2023-04-04T10:26:43.039Z,11.18
2023-04-04T10:29:11.808Z,11.20
2023-04-04T10:31:45.670Z,11.26
2023-04-04T10:34:53.750Z,11.25
2023-04-04T10:37:28.393Z,11.28
2023-04-04T10:40:19.412Z,11.28
2023-04-04T10:42:56.340Z,11.35
2023-04-04T10:45:25.694Z,11.42
2023-04-04T10:47:54.536Z,11.44
2023-04-04T10:50:22.776Z,11.50
2023-04-04T10:52:53.544Z,11.50
2023-04-04T10:55:23.330Z,11.50
2023-04-04T10:57:57.388Z,11.51
2023-04-04T11:00:25.402Z,11.55
2023-04-04T11:02:53.252Z,11.59
2023-04-04T11:05:47.506Z,11.69
2023-04-04T11:08:26.972Z,11.64
2023-04-04T11:10:57.362Z,11.66
2023-04-04T11:13:35.692Z,11.76
2023-04-04T11:16:22.078Z,11.84
2023-04-04T11:18:50.469Z,11.80
2023-04-04T11:21:27.924Z,11.88
2023-04-04T11:23:58.810Z,11.97
2023-04-04T11:26:30.572Z,11.98
2023-04-04T11:29:06.563Z,12.03
2023-04-04T11:31:40.044Z,12.10
2023-04-04T11:34:13.160Z,12.12
2023-04-04T11:36:45.046Z,12.17
2023-04-04T11:39:27.951Z,12.23
2023-04-04T11:42:04.932Z,12.21
2023-04-04T11:44:44.245Z,12.20
2023-04-04T11:47:13.460Z,12.22
2023-04-04T11:49:43.702Z,12.23
2023-04-04T11:52:21.149Z,12.32
2023-04-04T11:54:50.109Z,12.34
2023-04-04T11:57:19.924Z,12.36
2023-04-04T11:59:50.830Z,12.39
2023-04-04T12:02:27.559Z,12.36
2023-04-04T12:05:18.548Z,12.36
2023-04-04T12:07:49.282Z,12.37
2023-04-04T12:10:17.748Z,12.39
2023-04-04T12:12:49.406Z,12.42
2023-04-04T12:15:20.976Z,12.45
2023-04-04T12:17:49.862Z,12.50
2023-04-04T12:20:21.784Z,12.53
2023-04-04T12:22:51.709Z,12.56
2023-04-04T12:25:24.098Z,12.54
2023-04-04T12:27:54.467Z,12.60
2023-04-04T12:30:24.415Z,12.60
2023-04-04T12:32:52.462Z,12.64
2023-04-04T12:35:23.609Z,12.65
2023-04-04T12:38:03.385Z,12.68
2023-04-04T12:40:39.245Z,12.68
2023-04-04T12:43:09.692Z,12.67
2023-04-04T12:45:43.152Z,12.71
2023-04-04T12:48:15.274Z,12.77
2023-04-04T12:50:58.445Z,12.75
2023-04-04T12:53:29.999Z,12.80
2023-04-04T12:56:06.847Z,12.86
2023-04-04T12:58:37.516Z,12.88
2023-04-04T13:01:11.148Z,12.94
2023-04-04T13:03:39.627Z,12.93
2023-04-04T13:06:17.465Z,12.97
2023-04-04T13:08:55.080Z,12.99
2023-04-04T13:11:24.373Z,13.01
2023-04-04T13:14:04.683Z,13.08
2023-04-04T13:16:36.986Z,13.03
2023-04-04T13:19:05.395Z,13.03
2023-04-04T13:21:33.216Z,13.07
2023-04-04T13:24:03.153Z,13.10
2023-04-04T13:26:31.145Z,13.16
2023-04-04T13:28:58.992Z,13.11
2023-04-04T13:31:27.582Z,13.16
2023-04-04T13:33:55.581Z,13.14
2023-04-04T13:36:23.205Z,13.11
2023-04-04T13:38:51.697Z,13.15
2023-04-04T13:41:19.533Z,13.17
2023-04-04T13:43:47.304Z,13.20
2023-04-04T13:46:16.392Z,13.17
2023-04-04T13:48:44.323Z,13.18
2023-04-04T13:51:12.129Z,13.15
2023-04-04T13:53:41.418Z,13.17
2023-04-04T13:56:18.364Z,13.16
2023-04-04T13:58:47.110Z,13.18
2023-04-04T14:01:15.307Z,13.23
2023-04-04T14:03:43.191Z,13.26
2023-04-04T14:06:11.598Z,13.29
2023-04-04T14:08:40.193Z,13.33
2023-04-04T14:11:08.349Z,13.32
2023-04-04T14:13:39.389Z,13.32
2023-04-04T14:16:08.906Z,13.34
2023-04-04T14:18:42.273Z,13.30
2023-04-04T14:21:10.560Z,13.33
2023-04-04T14:23:39.143Z,13.40
2023-04-04T14:26:07.396Z,13.41
2023-04-04T14:28:35.559Z,13.47
2023-04-04T14:31:04.663Z,13.48
2023-04-04T14:33:33.849Z,13.48
2023-04-04T14:36:01.653Z,13.47
2023-04-04T14:38:31.784Z,13.54
2023-04-04T14:41:01.087Z,13.54
2023-04-04T14:43:28.830Z,13.53
2023-04-04T14:45:56.890Z,13.60
2023-04-04T14:48:26.722Z,13.57
2023-04-04T14:50:57.073Z,13.66
2023-04-04T14:53:27.558Z,13.59
2023-04-04T14:55:55.561Z,13.59
2023-04-04T14:58:23.329Z,13.55
2023-04-04T15:00:53.281Z,13.59
2023-04-04T15:03:21.413Z,13.56
2023-04-04T15:05:49.977Z,13.58
2023-04-04T15:08:17.622Z,13.57
2023-04-04T15:10:45.377Z,13.65
2023-04-04T15:13:13.397Z,13.64
2023-04-04T15:15:41.730Z,13.65
2023-04-04T15:18:09.706Z,13.70
2023-04-04T15:20:40.597Z,13.71
2023-04-04T15:23:08.625Z,13.73
2023-04-04T15:25:37.018Z,13.72
2023-04-04T15:28:04.850Z,13.78
2023-04-04T15:30:33.462Z,13.76
2023-04-04T15:33:01.513Z,13.76
2023-04-04T15:35:29.294Z,13.70
2023-04-04T15:37:58.385Z,13.75
2023-04-04T15:40:28.615Z,13.75
2023-04-04T15:42:57.121Z,13.78
2023-04-04T15:45:25.338Z,13.82
2023-04-04T15:47:53.105Z,13.82
2023-04-04T15:50:20.956Z,13.80
2023-04-04T15:52:51.648Z,13.82
2023-04-04T15:55:20.858Z,13.80
2023-04-04T15:57:54.442Z,13.80
2023-04-04T16:00:22.725Z,13.83
2023-04-04T16:02:50.665Z,13.79
2023-04-04T16:05:18.711Z,13.80
2023-04-04T16:07:46.543Z,13.75
2023-04-04T16:10:14.441Z,13.69
2023-04-04T16:12:42.405Z,13.71
2023-04-04T16:15:11.804Z,13.72
2023-04-04T16:17:39.810Z,13.76
2023-04-04T16:20:08.342Z,13.83
2023-04-04T16:22:36.173Z,13.92
2023-04-04T16:25:05.686Z,13.94
2023-04-04T16:27:34.099Z,13.93
2023-04-04T16:30:02.449Z,14.05
2023-04-04T16:32:31.945Z,13.98
2023-04-04T16:35:16.107Z,13.94
2023-04-04T16:38:04.205Z,13.92
2023-04-04T16:40:33.419Z,13.90
2023-04-04T16:43:01.403Z,13.81
2023-04-04T16:45:29.531Z,13.77
2023-04-04T16:47:57.809Z,13.78
2023-04-04T16:50:26.776Z,13.80
2023-04-04T16:52:55.301Z,13.77
2023-04-04T16:55:26.197Z,13.71
2023-04-04T16:57:54.905Z,13.68
2023-04-04T17:00:23.793Z,13.61
2023-04-04T17:02:51.939Z,13.55
2023-04-04T17:05:19.681Z,13.55
2023-04-04T17:07:47.698Z,13.48
2023-04-04T17:10:15.582Z,13.46
2023-04-04T17:12:43.644Z,13.42
2023-04-04T17:15:12.245Z,13.40
2023-04-04T17:17:40.571Z,13.34
2023-04-04T17:20:08.901Z,13.26
2023-04-04T17:22:36.952Z,13.16
2023-04-04T17:25:08.335Z,13.09
2023-04-04T17:27:36.152Z,13.05
2023-04-04T17:30:04.947Z,13.01
2023-04-04T17:32:33.724Z,13.00
2023-04-04T17:35:01.693Z,12.88
2023-04-04T17:37:31.139Z,12.95
2023-04-04T17:40:05.037Z,12.97
2023-04-04T17:42:36.088Z,12.97
2023-04-04T17:45:05.624Z,12.94
2023-04-04T17:47:33.425Z,12.85
2023-04-04T17:50:01.529Z,12.80
2023-04-04T17:52:29.241Z,12.81
2023-04-04T17:54:57.070Z,12.83
2023-04-04T17:57:25.004Z,12.77
2023-04-04T17:59:53.065Z,12.83
2023-04-04T18:02:21.114Z,12.75
2023-04-04T18:04:51.346Z,12.74
2023-04-04T18:07:19.224Z,12.69
2023-04-04T18:09:47.402Z,12.66
2023-04-04T18:12:18.055Z,12.56
2023-04-04T18:14:46.451Z,12.62
2023-04-04T18:17:17.446Z,12.62
2023-04-04T18:19:46.424Z,12.61
2023-04-04T18:22:14.545Z,12.60
2023-04-04T18:24:42.873Z,12.61
2023-04-04T18:27:11.408Z,12.57
2023-04-04T18:29:40.356Z,12.51
2023-04-04T18:32:09.008Z,12.45
2023-04-04T18:34:36.735Z,12.46
2023-04-04T18:37:04.510Z,12.40
2023-04-04T18:39:33.512Z,12.39
2023-04-04T18:42:02.966Z,12.39
2023-04-04T18:44:32.871Z,12.39
2023-04-04T18:47:04.804Z,12.36
2023-04-04T18:49:34.329Z,12.37
2023-04-04T18:52:02.965Z,12.34
2023-04-04T18:54:31.695Z,12.30
2023-04-04T18:57:00.706Z,12.23
2023-04-04T18:59:29.962Z,12.24
2023-04-04T19:01:57.991Z,12.24
2023-04-04T19:04:28.765Z,12.23
2023-04-04T19:06:57.328Z,12.19
2023-04-04T19:09:27.646Z,12.16
2023-04-04T19:11:55.434Z,12.14
2023-04-04T19:14:23.146Z,12.14
2023-04-04T19:16:51.015Z,12.07
2023-04-04T19:19:21.393Z,12.05
2023-04-04T19:21:49.364Z,11.98
2023-04-04T19:24:17.288Z,11.96
2023-04-04T19:26:45.648Z,11.92
2023-04-04T19:29:21.807Z,11.90
2023-04-04T19:31:49.859Z,11.87
2023-04-04T19:34:19.287Z,11.85
2023-04-04T19:36:47.120Z,11.81
2023-04-04T19:39:21.331Z,11.79
2023-04-04T19:41:49.508Z,11.74
2023-04-04T19:44:21.101Z,11.75
2023-04-04T19:46:49.190Z,11.46
2023-04-04T19:49:17.932Z,11.58
2023-04-04T19:51:55.325Z,11.59
2023-04-04T19:54:29.865Z,11.55
2023-04-04T19:57:15.440Z,11.51
2023-04-04T20:00:13.374Z,11.50
2023-04-04T20:02:55.569Z,11.43
2023-04-04T20:05:46.200Z,11.40
2023-04-04T20:08:14.848Z,11.34
2023-04-04T20:10:42.876Z,11.34
2023-04-04T20:13:10.835Z,11.31
2023-04-04T20:15:50.190Z,11.30
2023-04-04T20:18:31.956Z,11.23
2023-04-04T20:21:24.325Z,11.15
2023-04-04T20:23:58.074Z,11.12
2023-04-04T20:27:02.872Z,11.06
2023-04-04T20:29:33.600Z,11.02
2023-04-04T20:32:04.932Z,10.95
2023-04-04T20:34:45.367Z,10.98
2023-04-04T20:37:22.069Z,10.93
2023-04-04T20:39:57.146Z,10.98
2023-04-04T20:42:31.150Z,10.96
2023-04-04T20:45:33.064Z,10.93
2023-04-04T20:48:04.416Z,10.83
2023-04-04T20:50:33.656Z,10.83
2023-04-04T20:53:04.729Z,10.78
2023-04-04T20:55:35.451Z,10.77
2023-04-04T20:58:19.727Z,10.78
2023-04-04T21:00:47.773Z,10.72
2023-04-04T21:03:36.956Z,10.74
2023-04-04T21:06:15.163Z,10.71
2023-04-04T21:08:51.090Z,10.69
2023-04-04T21:11:29.096Z,10.61
2023-04-04T21:13:58.164Z,10.59
2023-04-04T21:16:27.875Z,10.55
2023-04-04T21:19:01.452Z,10.55
2023-04-04T21:21:29.734Z,10.49
2023-04-04T21:23:59.813Z,10.49
2023-04-04T21:26:36.450Z,10.45
2023-04-04T21:29:12.116Z,10.43
2023-04-04T21:31:41.301Z,10.41
2023-04-04T21:34:15.633Z,10.41
2023-04-04T21:36:47.567Z,10.40
2023-04-04T21:39:29.599Z,10.42
2023-04-04T21:42:07.759Z,10.37
2023-04-04T21:44:38.405Z,10.33
2023-04-04T21:47:06.506Z,10.28
2023-04-04T21:49:34.331Z,10.27
2023-04-04T21:52:02.093Z,10.27
2023-04-04T21:54:29.791Z,10.27
2023-04-04T21:56:57.537Z,10.25
2023-04-04T21:59:25.453Z,10.26
2023-04-04T22:01:53.176Z,10.19
2023-04-04T22:04:21.056Z,10.22
2023-04-04T22:06:48.859Z,10.18
2023-04-04T22:09:16.710Z,10.16
2023-04-04T22:11:44.693Z,10.16
2023-04-04T22:14:17.802Z,10.16
2023-04-04T22:16:46.403Z,10.06
2023-04-04T22:19:14.316Z,10.10
2023-04-04T22:21:47.213Z,10.02
2023-04-04T22:24:15.902Z,10.05
2023-04-04T22:26:45.934Z,10.04
2023-04-04T22:29:14.167Z,10.05
2023-04-04T22:31:44.095Z,10.03
2023-04-04T22:34:14.750Z,10.02
2023-04-04T22:36:43.840Z,9.99
2023-04-04T22:39:12.080Z,10.02
2023-04-04T22:41:40.047Z,10.04
2023-04-04T22:44:07.830Z,10.04
2023-04-04T22:46:35.764Z,10.01
2023-04-04T22:49:07.086Z,10.00
2023-04-04T22:51:43.078Z,9.95
2023-04-04T22:54:16.609Z,9.99
2023-04-04T22:56:45.091Z,9.89
2023-04-04T22:59:13.338Z,9.93
2023-04-04T23:01:41.359Z,9.91
2023-04-04T23:04:09.326Z,9.90
2023-04-04T23:06:38.537Z,9.86
2023-04-04T23:09:07.957Z,9.80
2023-04-04T23:11:37.541Z,9.74
2023-04-04T23:14:09.824Z,9.79
2023-04-04T23:16:38.199Z,9.77
2023-04-04T23:19:06.045Z,9.71
2023-04-04T23:21:34.953Z,9.71
2023-04-04T23:24:07.138Z,9.66
2023-04-04T23:26:35.513Z,9.60
2023-04-04T23:29:03.370Z,9.61
2023-04-04T23:31:31.675Z,9.57
2023-04-04T23:34:01.346Z,9.57
2023-04-04T23:36:29.194Z,9.55
2023-04-04T23:38:57.130Z,9.53
2023-04-04T23:41:24.966Z,9.50
2023-04-04T23:43:53.580Z,9.49
2023-04-04T23:46:21.653Z,9.48
2023-04-04T23:48:50.054Z,9.50
2023-04-04T23:51:18.143Z,9.50
2023-04-04T23:53:46.095Z,9.44
2023-04-04T23:56:13.870Z,9.49
2023-04-04T23:58:42.066Z,9.46
